Latest Weather Observations for Rolleston Airport

IDQ60801

Issued at 2:05 pm EST Tuesday 29 July 2014 (issued every 30 minutes, with the page automatically refreshed every 10 minutes)

About weather observations | Map of weather stations | Latest weather observations for QLD | Other Formats
Station Details ID: 035129 Name: ROLLESTON AIRPORT Lat: -24.46 Lon: 148.63 Height: 219.45 m
Data from the previous 72 hours. | See also: Recent months at Rolleston Airport
Date/Time
EST
Temp
°C
App
Temp
°C
Dew
Point
Rel
Hum
%
Delta-T
°C
Wind Press
QNH
hPa
Press
MSL
hPa
Rain
since 9 am
mm
Dir
 
Spd
km/h
Gust
km/h
Spd
kts
Gust
kts
29/02:00pm 24.7 22.8 7.4 33 9.2 NNW 7 15 4 8 1020.0 1019.9 0.0
29/01:30pm 24.8 23.0 7.9 34 9.0 N 7 13 4 7 1020.4 - 0.0
29/01:00pm 23.5 21.8 8.4 38 8.1 NNE 7 19 4 10 1021.0 1020.9 0.0
29/12:30pm 23.3 21.7 8.6 39 7.9 N 7 13 4 7 1021.7 - 0.0
29/12:00pm 22.7 20.5 9.5 43 7.2 N 11 22 6 12 1022.3 1022.1 0.0
29/11:30am 22.3 20.5 10.8 48 6.4 N 11 20 6 11 1022.8 - 0.0
29/11:00am 20.7 19.5 10.2 51 5.7 NW 7 17 4 9 1023.5 1023.4 0.0
29/10:30am 19.1 17.8 10.1 56 4.9 NW 7 13 4 7 1024.0 - 0.0
29/10:00am 17.8 16.9 9.2 57 4.5 WNW 4 7 2 4 1024.3 1024.2 0.0
29/09:30am 15.8 13.9 5.1 49 5.1 SSW 4 6 2 3 1024.4 - 0.0
29/09:00am 13.7 11.4 2.6 47 4.9 SSW 4 6 2 3 1024.3 1024.2 0.0
29/08:30am 10.8 8.2 0.8 50 4.2 SSE 4 4 2 2 1024.2 - 0.0
29/08:00am 8.1 5.4 0.3 58 3.1 SE 4 7 2 4 1024.1 1024.0 0.0
29/07:30am 6.5 3.8 0.2 64 2.5 S 4 7 2 4 1024.0 - 0.0
29/07:00am 5.2 2.7 -1.0 64 2.3 NNW 2 4 1 2 1023.6 1023.5 0.0
29/06:30am 4.4 1.5 -1.0 68 2.0 N 4 6 2 3 1023.2 - 0.0
29/06:00am 7.0 4.7 0.7 64 2.5 S 2 2 1 1 1023.2 1023.1 0.0
29/05:30am 5.5 3.1 -0.3 66 2.2 S 2 2 1 1 1023.1 - 0.0
29/05:00am 5.2 2.2 -1.5 62 2.5 S 4 6 2 3 1022.8 1022.6 0.0
29/04:30am 6.3 3.1 -0.4 62 2.6 SSE 6 6 3 3 1022.3 - 0.0
29/04:00am 6.8 3.6 -0.4 60 2.8 SSE 6 6 3 3 1022.2 1022.0 0.0
29/03:30am 6.3 3.6 0.0 64 2.5 S 4 7 2 4 1022.0 - 0.0
29/03:00am 7.0 5.0 -0.4 59 2.9 CALM 0 0 0 0 1021.8 1021.6 0.0
29/02:30am 7.0 4.8 -1.7 54 3.3 CALM 0 0 0 0 1021.6 - 0.0
29/02:00am 8.2 6.1 -0.8 53 3.5 CALM 0 0 0 0 1021.6 1021.4 0.0
29/01:30am 10.5 8.2 0.3 49 4.2 NE 2 4 1 2 1021.6 - 0.0
29/01:00am 10.3 6.7 0.3 50 4.1 SE 9 9 5 5 1021.7 1021.5 0.0
29/12:30am 8.7 5.0 -0.1 54 3.5 SSE 9 9 5 5 1021.7 - 0.0
29/12:00am 9.8 5.3 -0.1 50 4.0 SE 13 15 7 8 1021.8 1021.6 0.0
 
Date/Time
EST
Temp
°C
App
Temp
°C
Dew
Point
Rel
Hum
%
Delta-T
°C
Wind Press
QNH
hPa
Press
MSL
hPa
Rain
since 9 am
mm
Dir
 
Spd
km/h
Gust
km/h
Spd
kts
Gust
kts
28/11:30pm 9.8 6.1 -0.1 50 4.0 SE 9 11 5 6 1021.8 - 0.0
28/11:00pm 10.9 8.8 -0.5 45 4.6 CALM 0 0 0 0 1021.6 1021.4 0.0
28/10:30pm 12.5 9.9 0.9 45 4.9 SW 4 6 2 3 1021.6 - 0.0
28/10:00pm 11.5 8.8 0.0 45 4.7 SW 4 6 2 3 1021.6 1021.4 0.0
28/09:30pm 11.5 8.6 -0.9 42 5.0 S 4 7 2 4 1021.5 - 0.0
28/09:00pm 12.6 9.0 -2.1 36 5.8 S 7 19 4 10 1021.3 1021.2 0.0
28/08:30pm 15.0 12.5 -1.1 33 6.7 ENE 2 6 1 3 1021.2 - 0.0
28/08:00pm 16.6 13.1 -2.5 27 7.8 NE 6 7 3 4 1021.0 1020.9 0.0
28/07:30pm 18.1 14.6 -1.2 27 8.3 NE 7 9 4 5 1020.8 - 0.0
28/07:00pm 18.1 14.5 -2.2 25 8.5 NE 7 9 4 5 1020.5 1020.4 0.0
28/06:30pm 19.5 16.0 -1.6 24 9.1 NE 7 9 4 5 1020.3 - 0.0
28/06:00pm 22.1 18.9 -0.6 22 10.2 NE 6 7 3 4 1020.0 1019.9 0.0
28/05:30pm 23.6 21.1 -1.3 19 11.2 ENE 2 4 1 2 1019.8 - 0.0
28/05:00pm 25.3 23.1 -1.5 17 12.1 CALM 0 2 0 1 1019.7 1019.6 0.0
28/04:30pm 25.0 22.0 -1.7 17 12.0 WNW 4 7 2 4 1019.5 - 0.0
28/04:00pm 25.2 21.9 -1.6 17 12.1 SSW 6 9 3 5 1019.4 1019.3 0.0
28/03:30pm 25.2 21.8 -0.8 18 11.9 SSW 7 11 4 6 1019.5 - 0.0
28/03:00pm 24.9 21.8 0.4 20 11.4 SE 6 9 3 5 1019.8 1019.7 0.0
28/02:30pm 25.0 22.3 0.5 20 11.5 SW 4 9 2 5 1020.2 - 0.0
28/02:00pm 24.4 21.2 0.7 21 11.1 W 7 15 4 8 1020.6 1020.5 0.0
28/01:30pm 24.4 22.0 1.9 23 10.8 S 4 11 2 6 1021.0 - 0.0
28/01:00pm 24.3 21.9 1.9 23 10.7 ENE 4 7 2 4 1021.8 1021.6 0.0
28/12:30pm 23.8 20.9 1.4 23 10.6 NW 6 11 3 6 1022.4 - 0.0
28/12:00pm 22.5 19.9 0.9 24 10.0 SSW 4 7 2 4 1023.0 1022.8 0.0
28/11:30am 22.7 19.7 1.1 24 10.1 NE 6 7 3 4 1023.7 - 0.0
28/11:00am 20.7 17.8 1.6 28 8.8 ESE 6 11 3 6 1024.3 1024.2 0.0
28/10:30am 19.0 15.6 2.0 32 7.8 SE 9 17 5 9 1025.0 - 0.0
28/10:00am 17.6 14.6 2.0 35 7.1 SSE 7 11 4 6 1025.4 1025.3 0.0
28/09:30am 15.7 13.0 2.8 42 5.9 S 6 7 3 4 1025.7 - 0.0
28/09:00am 12.7 10.4 2.6 50 4.4 S 4 6 2 3 1025.5 1025.4 0.0
28/08:30am 10.8 8.4 2.4 56 3.6 S 4 6 2 3 1025.3 - 0.0
28/08:00am 8.9 6.6 2.5 64 2.7 S 4 6 2 3 1024.8 1024.7 0.0
28/07:30am 6.4 4.7 1.7 72 1.9 CALM 0 0 0 0 1024.7 - 0.0
28/07:00am 4.7 3.0 2.1 83 1.0 CALM 0 2 0 1 1024.6 1024.5 0.0
28/06:30am 4.1 1.2 1.3 82 1.1 SSW 6 7 3 4 1024.1 - 0.0
28/06:00am 4.5 1.4 1.4 80 1.2 SSW 7 9 4 5 1023.8 1023.7 0.0
28/05:30am 4.2 2.3 0.7 78 1.4 CALM 0 0 0 0 1023.5 - 0.0
28/05:00am 3.5 0.9 -1.8 68 1.9 NW 2 6 1 3 1023.2 1023.1 0.0
28/04:30am 7.0 3.6 1.7 69 2.2 SE 9 11 5 6 1023.0 - 0.0
28/04:00am 7.4 4.0 2.1 69 2.2 SSE 9 9 5 5 1022.9 1022.7 0.0
28/03:30am 6.8 3.4 1.9 71 2.0 SE 9 11 5 6 1023.0 - 0.0
28/03:00am 6.9 4.1 1.8 70 2.1 SSE 6 7 3 4 1023.0 1022.8 0.0
28/02:30am 6.8 3.8 1.9 71 2.0 S 7 9 4 5 1023.1 - 0.0
28/02:00am 8.1 5.3 1.9 65 2.6 S 6 6 3 3 1023.3 1023.2 0.0
28/01:30am 8.9 6.6 2.7 65 2.7 SSE 4 6 2 3 1023.4 - 0.0
28/01:00am 9.0 6.7 2.8 65 2.7 S 4 6 2 3 1023.5 1023.4 0.0
28/12:30am 8.9 6.5 2.0 62 2.9 S 4 6 2 3 1023.6 - 0.0
28/12:00am 10.0 7.3 2.8 61 3.1 S 6 6 3 3 1023.8 1023.7 0.0
 
Date/Time
EST
Temp
°C
App
Temp
°C
Dew
Point
Rel
Hum
%
Delta-T
°C
Wind Press
QNH
hPa
Press
MSL
hPa
Rain
since 9 am
mm
Dir
 
Spd
km/h
Gust
km/h
Spd
kts
Gust
kts
27/11:30pm 11.0 8.2 2.3 55 3.8 SSE 6 6 3 3 1024.0 - 0.0
27/11:00pm 11.9 9.1 2.9 54 4.0 SE 7 7 4 4 1024.1 1024.0 0.0
27/10:30pm 13.3 10.4 2.8 49 4.7 SE 7 9 4 5 1024.2 - 0.0
27/10:00pm 12.9 10.0 2.5 49 4.6 SE 7 9 4 5 1024.2 1024.1 0.0
27/09:30pm 13.3 10.4 2.8 49 4.7 SE 7 7 4 4 1023.9 - 0.0
27/09:00pm 13.9 10.7 2.8 47 5.0 SE 9 11 5 6 1023.7 1023.6 0.0
27/08:30pm 12.5 9.1 2.1 49 4.5 SSE 9 11 5 6 1023.4 - 0.0
27/08:00pm 15.4 12.8 3.2 44 5.6 S 6 6 3 3 1023.1 1023.0 0.0
27/07:30pm 16.1 12.9 3.2 42 6.0 SSE 9 9 5 5 1022.8 - 0.0
27/07:00pm 17.1 13.9 3.1 39 6.5 SE 9 9 5 5 1022.4 1022.2 0.0
27/06:30pm 18.6 15.4 3.3 36 7.2 SE 9 11 5 6 1022.0 - 0.0
27/06:00pm 20.5 16.7 3.7 33 8.1 SE 13 17 7 9 1021.7 1021.5 0.0
27/05:30pm 22.4 17.3 4.0 30 9.1 SSE 20 24 11 13 1021.5 - 0.0
27/05:00pm 24.0 20.6 3.9 27 9.9 SE 11 17 6 9 1021.0 1020.9 0.0
27/04:30pm 24.7 20.1 3.9 26 10.4 SSE 17 22 9 12 1020.9 - 0.0
27/04:00pm 25.1 21.9 5.3 28 10.1 S 11 19 6 10 1020.9 1020.8 0.0
27/03:30pm 25.1 21.3 5.8 29 10.0 SSE 15 22 8 12 1021.1 - 0.0
27/03:00pm 25.0 22.0 6.2 30 9.8 SSE 11 19 6 10 1021.2 1021.1 0.0
27/02:30pm 25.4 22.9 6.6 30 9.9 S 9 26 5 14 1021.6 - 0.0
27/02:00pm 25.1 22.0 7.3 32 9.4 SSE 13 24 7 13 1022.0 1021.8 0.0
27/01:30pm 24.3 20.5 7.4 34 9.0 S 17 28 9 15 1022.5 - 0.0
27/01:00pm 24.8 22.0 8.7 36 8.7 S 13 28 7 15 1022.9 1022.7 0.0
27/12:30pm 23.6 20.7 8.1 37 8.3 S 13 20 7 11 1023.6 - 0.0
27/12:00pm 23.2 21.1 9.9 43 7.3 S 11 22 6 12 1024.2 1024.1 0.0
27/11:30am 22.6 20.4 10.7 47 6.6 S 13 19 7 10 1024.7 - 0.0
27/11:00am 21.7 19.0 10.5 49 6.2 SSE 15 22 8 12 1025.2 1025.1 0.0
27/10:30am 20.8 17.1 10.3 51 5.8 SSE 20 24 11 13 1025.6 - 0.0
27/10:00am 19.2 17.5 11.3 60 4.3 SSW 11 17 6 9 1025.8 1025.7 0.0
27/09:30am 16.8 16.1 12.1 74 2.6 SSW 7 13 4 7 1025.9 - 0.0
27/09:00am 14.0 13.4 11.7 86 1.2 SSW 6 9 3 5 1025.7 1025.6 0.0
27/08:30am 11.0 10.1 10.7 98 0.2 SSW 6 7 3 4 1025.4 - 0.0
27/08:00am 8.5 7.0 8.4 99 0.0 S 6 7 3 4 1025.2 1025.1 0.0
27/07:30am 7.0 4.9 6.7 98 0.1 S 7 9 4 5 1025.1 - 0.0
27/07:00am 7.3 5.3 7.2 99 0.0 S 7 7 4 4 1024.7 1024.6 0.0
27/06:30am 8.2 7.0 8.1 99 0.0 S 4 6 2 3 1024.5 - 0.0
27/06:00am 8.4 6.9 8.3 99 0.0 SSE 6 7 3 4 1024.1 1024.0 0.0
27/05:30am 8.7 7.6 8.6 99 0.0 SSE 4 6 2 3 1024.0 - 0.0
27/05:00am 8.2 7.0 7.9 98 0.1 S 4 6 2 3 1024.0 1023.9 0.0
27/04:30am 8.6 6.9 8.5 99 0.0 S 7 9 4 5 1023.9 - 0.0
27/04:00am 8.2 6.9 7.8 97 0.2 S 4 6 2 3 1023.8 1023.7 0.0
27/03:30am 8.6 7.1 8.3 98 0.1 S 6 7 3 4 1024.1 - 0.0
27/03:00am 8.5 6.9 8.1 97 0.2 S 6 7 3 4 1024.3 1024.2 0.0
27/02:30am 9.2 7.7 8.6 96 0.3 S 6 7 3 4 1024.4 - 0.0
27/02:00am 10.7 9.4 10.1 96 0.3 SSE 7 7 4 4 1024.5 1024.4 0.0
27/01:30am 11.1 10.2 10.6 97 0.3 SE 6 7 3 4 1024.6 - 0.0
27/01:00am 10.6 10.5 9.5 93 0.6 CALM 0 0 0 0 1025.2 1025.1 0.0
27/12:30am 11.2 11.4 10.4 95 0.4 CALM 0 0 0 0 1025.6 - 0.0
27/12:00am 12.1 12.6 11.6 97 0.3 CALM 0 2 0 1 1025.5 1025.4 0.0
 
Date/Time
EST
Temp
°C
App
Temp
°C
Dew
Point
Rel
Hum
%
Delta-T
°C
Wind Press
QNH
hPa
Press
MSL
hPa
Rain
since 9 am
mm
Dir
 
Spd
km/h
Gust
km/h
Spd
kts
Gust
kts
26/11:30pm 11.3 11.3 9.9 91 0.7 CALM 0 4 0 2 1025.7 - 0.0
26/11:00pm 11.7 11.8 10.3 91 0.7 CALM 0 2 0 1 1025.9 1025.8 0.0
26/10:30pm 12.7 12.2 10.6 87 1.1 S 4 4 2 2 1025.9 - 0.0
26/10:00pm 13.1 12.2 10.8 86 1.2 SSE 6 6 3 3 1025.8 1025.7 0.0
26/09:30pm 14.3 14.0 11.5 83 1.5 SE 4 6 2 3 1025.9 - 0.0
26/09:00pm 14.8 14.2 11.8 82 1.6 SE 6 7 3 4 1026.0 1025.9 0.0
26/08:30pm 15.3 15.2 12.1 81 1.8 SSE 4 4 2 2 1025.9 - 0.0
26/08:00pm 15.9 15.6 11.5 75 2.4 SSE 4 6 2 3 1025.8 1025.7 0.0
26/07:30pm 17.2 17.7 11.5 69 3.1 CALM 0 0 0 0 1025.4 - 0.0
26/07:00pm 18.3 18.2 12.1 67 3.4 SSE 4 4 2 2 1025.0 1024.9 0.0
26/06:30pm 18.4 17.8 12.2 67 3.5 SE 7 9 4 5 1024.9 - 0.0
26/06:00pm 19.2 19.8 12.0 63 4.0 CALM 0 0 0 0 1024.7 1024.6 0.0
26/05:30pm 20.0 20.6 12.0 60 4.5 CALM 0 0 0 0 1024.4 - 0.0
26/05:00pm 20.3 20.9 12.0 59 4.7 CALM 0 0 0 0 1024.6 1024.5 0.0
26/04:30pm 20.4 21.1 12.1 59 4.7 CALM 0 0 0 0 1024.6 - 0.0
26/04:00pm 20.5 20.4 12.0 58 4.8 SW 4 6 2 3 1024.4 1024.3 0.0
26/03:30pm 20.8 21.4 12.0 57 5.0 CALM 0 2 0 1 1024.2 - 0.0
26/03:00pm 20.4 20.3 12.1 59 4.7 SSW 4 7 2 4 1024.2 1024.1 0.0
26/02:30pm 20.4 20.8 12.4 60 4.5 W 2 4 1 2 1024.0 - 0.0

Other Formats:

Comma delimited format used in spreadsheet applications
http://www.bom.gov.au/fwo/IDQ60801/IDQ60801.94396.axf

JavaScript Object Notation format (JSON) in row-major order
http://www.bom.gov.au/fwo/IDQ60801/IDQ60801.94396.json